• Join FlightAware (Why Join?)
  • Login
  • US Flag 
10:32PM EDT


 

Airport Tracker/Info


-or-


 

Live Flight TrackerFlight Track Log ✈ GJS6221 ✈ 28-May-2014 ✈ KLGA - KMKE

Flight Track Log - Related Links

Times and Time Zones

All times are in EDT time to prevent confusion due to time zone crossing. See the GJS6221 flight status page for this flight to view local times or setup timezone preferences in your user account.

Time Position Orientation Groundspeed Altitude Reporting Facility
EDT Latitude Longitude Course Direction KTS MPH feet Rate Location/Type
01:16PM 40.7500 -73.8333 114° Southeast 165 190 1,900  Level New York TRACON
01:17PM 40.7333 -73.7833 114° Southeast 212 244 3,700 1,980 Climbing New York TRACON
01:18PM 40.8000 -73.7833 360° North 240 276 5,700 2,400 Climbing New York TRACON
01:19PM 40.8667 -73.8167 339° North 268 308 8,600 2,700 Climbing New York TRACON
01:20PM 40.9333 -73.8500 339° North 275 316 11,200 2,100 Climbing New York TRACON
01:21PM 41.0000 -73.9333 317° Northwest 313 360 12,900 1,860 Climbing New York TRACON
01:22PM 41.0500 -74.0333 304° West 335 386 15,000 1,440 Climbing New York TRACON
01:23PM 41.0833 -74.1500 291° West 313 360 16,000 480 Climbing New York TRACON
01:24PM 41.1000 -74.2500 283° West 300 345 16,100  Climbing New York TRACON
01:25PM 41.1000 -74.3667 270° West 328 377 16,100 120 Level New York TRACON
01:26PM 41.1214 -74.5031 282° West 337 388 16,400 1,080 Climbing New York Center
01:27PM 41.1314 -74.6469 275° West 354 407 18,600 1,800 Climbing New York Center
01:28PM 41.1669 -74.7619 292° West 348 400 20,100 1,500 Climbing New York Center
01:29PM 41.2192 -74.8836 300° West 356 410 21,600 1,440 Climbing New York Center
01:30PM 41.2653 -74.9942 299° West 374 430 23,000 1,380 Climbing New York Center
01:31PM 41.3192 -75.1161 301° West 384 442 24,500 1,440 Climbing New York Center
01:32PM 41.3728 -75.2414 300° West 384 442 25,900 1,200 Climbing New York Center
01:33PM 41.4261 -75.3694 299° West 390 449 26,900 1,020 Climbing New York Center
01:34PM 41.4814 -75.5033 299° West 400 460 28,000 1,080 Climbing New York Center
01:35PM 41.5211 -75.6503 290° West 411 473 29,200 1,200 Climbing New York Center
01:36PM 41.5631 -75.7919 292° West 411 473 30,400 1,320 Climbing New York Center
01:37PM 41.6050 -75.9336 292° West 411 473 31,800 1,260 Climbing New York Center
01:38PM 41.6467 -76.0731 292° West 411 473 33,000 1,260 Climbing New York Center
01:39PM 41.6897 -76.2264 291° West 411 473 34,400 1,140 Climbing New York Center
01:40PM 41.7272 -76.3628 290° West 411 473 35,400 840 Climbing New York Center
01:41PM 41.7592 -76.4769 291° West 406 467 36,100 780 Climbing New York Center
01:42PM 41.7828 -76.5661 290° West 396 456 36,600 720 Climbing Cleveland Center
01:43PM 41.8197 -76.7036 290° West 395 455 37,300 540 Climbing Cleveland Center
01:44PM 41.8578 -76.8406 291° West 395 455 37,800 300 Climbing Cleveland Center
01:45PM 41.8961 -76.9772 291° West 393 452 38,000 60 Climbing Cleveland Center
01:46PM 41.9317 -77.1150 289° West 392 451 38,000  Level Cleveland Center
01:47PM 41.9700 -77.2525 291° West 392 451 38,000  Level Cleveland Center
01:48PM 42.0131 -77.4158 290° West 391 450 38,000  Level Cleveland Center
01:49PM 42.0519 -77.5564 290° West 393 452 38,000  Level Cleveland Center
01:50PM 42.0886 -77.6956 290° West 395 455 38,000  Level Cleveland Center
01:51PM 42.1269 -77.8364 290° West 395 455 38,000  Level Cleveland Center
01:52PM 42.1653 -77.9797 290° West 402 463 38,000  Level Cleveland Center
01:53PM 42.2025 -78.1197 290° West 400 460 38,000  Level Cleveland Center
01:54PM 42.2403 -78.2619 290° West 400 460 38,000  Level Cleveland Center
01:55PM 42.2819 -78.4311 288° West 399 459 38,000  Level Cleveland Center
01:56PM 42.3172 -78.5736 289° West 399 459 38,000  Level Cleveland Center
01:57PM 42.3528 -78.7158 289° West 399 459 38,000  Level Cleveland Center
01:58PM 42.3872 -78.8569 288° West 399 459 38,000  Level Cleveland Center
01:59PM 42.4253 -79.0111 289° West 399 459 38,000  Level Cleveland Center
02:00PM 42.4572 -79.1442 288° West 401 461 38,000  Level Cleveland Center
02:01PM 42.4994 -79.3156 289° West 402 463 38,000  Level Cleveland Center
02:02PM 42.5331 -79.4589 288° West 402 463 38,000  Level Cleveland Center
02:03PM 42.5678 -79.6017 288° West 400 460 38,000  Level Cleveland Center
02:04PM 42.6017 -79.7453 288° West 400 460 38,000  Level Cleveland Center
02:05PM 42.6175 -79.8928 278° West 397 457 38,000  Level Cleveland Center
02:06PM 42.6236 -80.0592 273° West 400 460 38,000  Level Cleveland Center
02:08PM 42.6303 -80.2131 273° West 401 461 38,000  Level Cleveland Center
02:09PM 42.6364 -80.3650 273° West 402 463 38,000  Level Cleveland Center
02:10PM 42.6428 -80.5189 273° West 404 465 38,000  Level Cleveland Center
02:11PM 42.6481 -80.6747 273° West 406 467 38,000  Level Cleveland Center
02:12PM 42.6544 -80.8572 273° West 413 475 38,000  Level Cleveland Center
02:13PM 42.6592 -81.0119 272° West 412 474 38,000  Level Cleveland Center
02:14PM 42.6636 -81.1672 272° West 412 474 38,000  Level Cleveland Center
02:15PM 42.6731 -81.3214 275° West 410 472 38,000  Level Cleveland Center
02:16PM 42.6911 -81.4769 279° West 411 473 38,000  Level Cleveland Center
02:17PM 42.7086 -81.6322 279° West 411 473 38,000  Level Cleveland Center
02:18PM 42.7286 -81.8047 279° West 415 478 38,000  Level Cleveland Center
02:19PM 42.7456 -81.9592 279° West 418 481 38,000  Level Cleveland Center
02:20PM 42.7628 -82.1131 279° West 416 479 38,000  Level Cleveland Center
02:21PM 42.7792 -82.2683 278° West 415 478 38,000  Level Cleveland Center
02:22PM 42.7983 -82.4514 278° West 414 476 38,000  Level Cleveland Center
02:23PM 42.8156 -82.6042 279° West 414 476 38,000  Level Cleveland Center
02:24PM 42.8369 -82.7550 281° West 408 470 38,000  Level Cleveland Center
02:25PM 42.8578 -82.9064 281° West 409 471 38,000  Level Cleveland Center
02:26PM 42.8781 -83.0594 280° West 410 472 38,000  Level Cleveland Center
02:27PM 42.9022 -83.2433 280° West 411 473 38,000  Level Cleveland Center
02:28PM 42.9231 -83.3975 281° West 413 475 38,000  Level Cleveland Center
02:29PM 42.9433 -83.5519 280° West 414 476 38,000  Level Cleveland Center
02:30PM 42.9628 -83.7072 280° West 416 479 38,000  Level Cleveland Center
02:31PM 42.9792 -83.8636 278° West 420 483 38,000  Level Cleveland Center
02:32PM 42.9969 -84.0531 277° West 420 483 38,000  Level Cleveland Center
02:33PM 43.0131 -84.2108 278° West 421 484 38,000  Level Cleveland Center
02:34PM 43.0286 -84.3817 277° West 422 486 38,000  Level Cleveland Center
02:35PM 43.0436 -84.5422 277° West 423 487 38,000  Level Cleveland Center
02:37PM 43.0575 -84.7008 277° West 424 488 38,000  Level Cleveland Center
02:38PM 43.0719 -84.8600 277° West 423 487 38,000  Level Cleveland Center
02:39PM 43.0858 -85.0186 277° West 423 487 38,000  Level Cleveland Center
02:40PM 43.0986 -85.1750 276° West 418 481 38,000 -540 Level Cleveland Center
02:41PM 43.1156 -85.3658 277° West 423 487 37,000 -1,080 Descending Cleveland Center
02:42PM 43.1281 -85.5250 276° West 423 487 35,800 -1,140 Descending Cleveland Center
02:43PM 43.1414 -85.6853 277° West 425 489 34,700 -1,140 Descending Cleveland Center
02:44PM 43.1550 -85.8469 277° West 430 495 33,500 -1,440 Descending Cleveland Center
02:45PM 43.1694 -86.0428 276° West 442 509 31,800 -1,500 Descending Cleveland Center
02:46PM 43.1669 -86.2111 269° West 450 518 30,400 -2,040 Descending Cleveland Center
02:47PM 43.1636 -86.4428 269° West 434 499 26,700 -3,180 Descending Chicago Center
02:48PM 43.1597 -86.6375 268° West 422 486 22,400 -3,720 Descending Chicago Center
02:49PM 43.1569 -86.7886 269° West 404 465 19,100 -3,060 Descending Chicago Center
02:50PM 43.1539 -86.9303 268° West 376 433 16,100 -2,760 Descending Chicago Center
02:51PM 43.1522 -87.0683 269° West 369 425 13,400 -2,160 Descending Chicago Center
02:53PM 43.1481 -87.1981 268° West 347 399 11,700 -1,680 Descending Chicago Center
02:54PM 43.1444 -87.3531 268° West 341 392 10,000 -840 Descending Chicago Center
02:55PM 43.1256 -87.4678 257° West 328 377 10,000  Level Chicago Center
02:56PM 43.1031 -87.5936 256° West 338 389 10,000 -540 Level Chicago Center
02:57PM 43.0664 -87.7153 248° West 290 334 8,900 -1,260 Descending Chicago Center
02:58PM 43.0192 -87.7903 229° Southwest 284 327 7,500 -960 Descending Chicago Center
02:59PM 42.9428 -87.8081 190° South 279 321 7,000 -900 Descending Chicago Center
03:00PM 42.8711 -87.8236 189° South 265 305 5,700 -1,500 Descending Chicago Center
03:01PM 42.8014 -87.8408 190° South 260 299 4,000 -1,440 Descending Chicago Center
03:02PM 42.7944 -87.9211 263° West 248 285 2,800 -840 Descending Chicago Center
03:03PM 42.8578 -87.9089 North 230 265 2,300 -720 Descending Chicago Center
03:04PM 42.9011 -87.9011 North 189 217 1,400 -900 Descending Chicago Center
03:06PM 42.9333 -87.8833 289° West  Level FlightAware Approximate
03:13PM 42.9469 -87.8971 289° West  Level Estimated